sensor_id;sensor_type;location;lat;lon;timestamp;temperature;humidity
64654;DHT22;51065;48.884;12.598;2022-10-20T00:01:20;5.60;99.90
64654;DHT22;51065;48.884;12.598;2022-10-20T00:03:47;5.70;99.90
64654;DHT22;51065;48.884;12.598;2022-10-20T00:08:43;5.90;99.90
64654;DHT22;51065;48.884;12.598;2022-10-20T00:11:11;6.00;99.90
64654;DHT22;51065;48.884;12.598;2022-10-20T00:13:38;6.10;99.90
64654;DHT22;51065;48.884;12.598;2022-10-20T00:16:04;6.20;99.90
64654;DHT22;51065;48.884;12.598;2022-10-20T00:18:30;6.10;99.90
64654;DHT22;51065;48.884;12.598;2022-10-20T00:20:55;6.10;99.90
64654;DHT22;51065;48.884;12.598;2022-10-20T00:23:21;6.20;99.90
64654;DHT22;51065;48.884;12.598;2022-10-20T00:25:47;6.20;99.90
64654;DHT22;51065;48.884;12.598;2022-10-20T00:28:13;6.20;99.90
64654;DHT22;51065;48.884;12.598;2022-10-20T00:30:39;6.20;99.90
64654;DHT22;51065;48.884;12.598;2022-10-20T00:33:05;6.20;99.90
64654;DHT22;51065;48.884;12.598;2022-10-20T00:35:32;6.30;99.90
64654;DHT22;51065;48.884;12.598;2022-10-20T00:37:58;6.30;99.90
64654;DHT22;51065;48.884;12.598;2022-10-20T00:40:24;6.40;99.90
64654;DHT22;51065;48.884;12.598;2022-10-20T00:42:49;6.40;99.90
64654;DHT22;51065;48.884;12.598;2022-10-20T00:45:20;6.40;99.90
64654;DHT22;51065;48.884;12.598;2022-10-20T00:47:46;6.50;99.90
64654;DHT22;51065;48.884;12.598;2022-10-20T00:50:20;6.50;99.90
64654;DHT22;51065;48.884;12.598;2022-10-20T00:52:47;6.40;99.90
64654;DHT22;51065;48.884;12.598;2022-10-20T00:55:18;6.30;99.90
64654;DHT22;51065;48.884;12.598;2022-10-20T00:57:47;6.20;99.90
64654;DHT22;51065;48.884;12.598;2022-10-20T01:00:15;6.20;99.90
64654;DHT22;51065;48.884;12.598;2022-10-20T01:02:41;6.10;99.90
64654;DHT22;51065;48.884;12.598;2022-10-20T01:05:08;6.10;99.90
64654;DHT22;51065;48.884;12.598;2022-10-20T01:07:34;6.10;99.90
64654;DHT22;51065;48.884;12.598;2022-10-20T01:10:00;6.00;99.90
64654;DHT22;51065;48.884;12.598;2022-10-20T01:12:43;5.90;99.90
64654;DHT22;51065;48.884;12.598;2022-10-20T01:18:28;5.60;99.90
64654;DHT22;51065;48.884;12.598;2022-10-20T01:26:56;5.40;99.90
64654;DHT22;51065;48.884;12.598;2022-10-20T01:29:46;5.50;99.90
64654;DHT22;51065;48.884;12.598;2022-10-20T01:32:34;5.40;99.90
64654;DHT22;51065;48.884;12.598;2022-10-20T01:35:02;5.40;99.90
64654;DHT22;51065;48.884;12.598;2022-10-20T01:42:41;5.10;99.90
64654;DHT22;51065;48.884;12.598;2022-10-20T01:45:09;4.90;99.90
64654;DHT22;51065;48.884;12.598;2022-10-20T01:47:37;4.90;99.90
64654;DHT22;51065;48.884;12.598;2022-10-20T01:50:04;4.80;99.90
64654;DHT22;51065;48.884;12.598;2022-10-20T01:52:32;4.90;99.90
64654;DHT22;51065;48.884;12.598;2022-10-20T01:55:00;4.90;99.90
64654;DHT22;51065;48.884;12.598;2022-10-20T01:57:32;4.80;99.90
64654;DHT22;51065;48.884;12.598;2022-10-20T02:00:10;4.80;99.90
64654;DHT22;51065;48.884;12.598;2022-10-20T02:03:05;4.80;99.90
64654;DHT22;51065;48.884;12.598;2022-10-20T02:08:33;4.90;99.90
64654;DHT22;51065;48.884;12.598;2022-10-20T02:11:03;4.90;99.90
64654;DHT22;51065;48.884;12.598;2022-10-20T02:13:30;4.90;99.90
64654;DHT22;51065;48.884;12.598;2022-10-20T02:15:59;4.90;99.90
64654;DHT22;51065;48.884;12.598;2022-10-20T02:18:35;4.90;99.90
64654;DHT22;51065;48.884;12.598;2022-10-20T02:21:03;4.90;99.90
64654;DHT22;51065;48.884;12.598;2022-10-20T02:23:33;4.90;99.90
64654;DHT22;51065;48.884;12.598;2022-10-20T02:25:59;4.80;99.90
64654;DHT22;51065;48.884;12.598;2022-10-20T02:28:27;4.70;99.90
64654;DHT22;51065;48.884;12.598;2022-10-20T02:30:53;4.70;99.90
64654;DHT22;51065;48.884;12.598;2022-10-20T02:33:20;4.70;99.90
64654;DHT22;51065;48.884;12.598;2022-10-20T02:35:56;4.70;99.90
64654;DHT22;51065;48.884;12.598;2022-10-20T02:38:22;4.60;99.90
64654;DHT22;51065;48.884;12.598;2022-10-20T02:40:47;4.50;99.90
64654;DHT22;51065;48.884;12.598;2022-10-20T02:43:13;4.50;99.90
64654;DHT22;51065;48.884;12.598;2022-10-20T02:45:39;4.30;99.90
64654;DHT22;51065;48.884;12.598;2022-10-20T02:48:05;4.20;99.90
64654;DHT22;51065;48.884;12.598;2022-10-20T02:50:31;4.20;99.90
64654;DHT22;51065;48.884;12.598;2022-10-20T02:52:57;4.10;99.90
64654;DHT22;51065;48.884;12.598;2022-10-20T02:55:22;4.10;99.90
64654;DHT22;51065;48.884;12.598;2022-10-20T02:57:48;4.10;99.90
64654;DHT22;51065;48.884;12.598;2022-10-20T03:00:13;4.00;99.90
64654;DHT22;51065;48.884;12.598;2022-10-20T03:02:39;4.00;99.90
64654;DHT22;51065;48.884;12.598;2022-10-20T03:05:05;4.00;99.90
64654;DHT22;51065;48.884;12.598;2022-10-20T03:07:31;3.90;99.90
64654;DHT22;51065;48.884;12.598;2022-10-20T03:09:56;3.80;99.90
64654;DHT22;51065;48.884;12.598;2022-10-20T03:12:22;3.80;99.90
64654;DHT22;51065;48.884;12.598;2022-10-20T03:14:47;3.80;99.90
64654;DHT22;51065;48.884;12.598;2022-10-20T03:17:13;3.80;99.90
64654;DHT22;51065;48.884;12.598;2022-10-20T03:19:39;3.90;99.90
64654;DHT22;51065;48.884;12.598;2022-10-20T03:22:05;4.10;99.90
64654;DHT22;51065;48.884;12.598;2022-10-20T03:24:31;4.30;99.90
64654;DHT22;51065;48.884;12.598;2022-10-20T03:26:56;4.30;99.90
64654;DHT22;51065;48.884;12.598;2022-10-20T03:29:22;4.50;99.90
64654;DHT22;51065;48.884;12.598;2022-10-20T03:31:47;4.50;99.90
64654;DHT22;51065;48.884;12.598;2022-10-20T03:34:13;4.70;99.90
64654;DHT22;51065;48.884;12.598;2022-10-20T03:36:38;4.60;99.90
64654;DHT22;51065;48.884;12.598;2022-10-20T03:39:04;4.60;99.90
64654;DHT22;51065;48.884;12.598;2022-10-20T03:41:30;4.60;99.90
64654;DHT22;51065;48.884;12.598;2022-10-20T03:43:55;4.80;99.90
64654;DHT22;51065;48.884;12.598;2022-10-20T03:46:21;4.80;99.90
64654;DHT22;51065;48.884;12.598;2022-10-20T03:48:46;4.80;99.90
64654;DHT22;51065;48.884;12.598;2022-10-20T03:51:13;4.70;99.90
64654;DHT22;51065;48.884;12.598;2022-10-20T03:53:39;4.70;99.90
64654;DHT22;51065;48.884;12.598;2022-10-20T03:56:06;4.60;99.90
64654;DHT22;51065;48.884;12.598;2022-10-20T03:58:32;4.60;99.90
64654;DHT22;51065;48.884;12.598;2022-10-20T04:00:58;4.70;99.90
64654;DHT22;51065;48.884;12.598;2022-10-20T04:03:23;4.70;99.90
64654;DHT22;51065;48.884;12.598;2022-10-20T04:05:49;4.70;99.90
64654;DHT22;51065;48.884;12.598;2022-10-20T04:08:14;4.80;99.90
64654;DHT22;51065;48.884;12.598;2022-10-20T04:10:40;4.80;99.90
64654;DHT22;51065;48.884;12.598;2022-10-20T04:13:05;4.70;99.90
64654;DHT22;51065;48.884;12.598;2022-10-20T04:15:31;4.70;99.90
64654;DHT22;51065;48.884;12.598;2022-10-20T04:17:58;4.70;99.90
64654;DHT22;51065;48.884;12.598;2022-10-20T04:20:23;4.70;99.90
64654;DHT22;51065;48.884;12.598;2022-10-20T04:22:49;4.70;99.90
64654;DHT22;51065;48.884;12.598;2022-10-20T04:25:15;4.60;99.90
64654;DHT22;51065;48.884;12.598;2022-10-20T04:27:40;4.60;99.90
64654;DHT22;51065;48.884;12.598;2022-10-20T04:30:07;4.50;99.90
64654;DHT22;51065;48.884;12.598;2022-10-20T04:32:33;4.50;99.90
64654;DHT22;51065;48.884;12.598;2022-10-20T04:34:58;4.40;99.90
64654;DHT22;51065;48.884;12.598;2022-10-20T04:37:24;4.40;99.90
64654;DHT22;51065;48.884;12.598;2022-10-20T04:39:50;4.30;99.90
64654;DHT22;51065;48.884;12.598;2022-10-20T04:42:18;4.30;99.90
64654;DHT22;51065;48.884;12.598;2022-10-20T04:44:44;4.30;99.90
64654;DHT22;51065;48.884;12.598;2022-10-20T04:47:11;4.20;99.90
64654;DHT22;51065;48.884;12.598;2022-10-20T04:49:36;4.20;99.90
64654;DHT22;51065;48.884;12.598;2022-10-20T04:52:02;4.30;99.90
64654;DHT22;51065;48.884;12.598;2022-10-20T04:54:28;4.30;99.90
64654;DHT22;51065;48.884;12.598;2022-10-20T04:56:54;4.30;99.90
64654;DHT22;51065;48.884;12.598;2022-10-20T04:59:20;4.20;99.90
64654;DHT22;51065;48.884;12.598;2022-10-20T05:01:45;4.20;99.90
64654;DHT22;51065;48.884;12.598;2022-10-20T05:04:11;4.10;99.90
64654;DHT22;51065;48.884;12.598;2022-10-20T05:06:37;4.00;99.90
64654;DHT22;51065;48.884;12.598;2022-10-20T05:09:05;4.10;99.90
64654;DHT22;51065;48.884;12.598;2022-10-20T05:11:34;4.10;99.90
64654;DHT22;51065;48.884;12.598;2022-10-20T05:14:00;4.00;99.90
64654;DHT22;51065;48.884;12.598;2022-10-20T05:16:26;3.90;99.90
64654;DHT22;51065;48.884;12.598;2022-10-20T05:18:52;3.90;99.90
64654;DHT22;51065;48.884;12.598;2022-10-20T05:21:22;3.80;99.90
64654;DHT22;51065;48.884;12.598;2022-10-20T05:23:48;3.80;99.90
64654;DHT22;51065;48.884;12.598;2022-10-20T05:26:18;3.80;99.90
64654;DHT22;51065;48.884;12.598;2022-10-20T05:28:47;3.90;99.90
64654;DHT22;51065;48.884;12.598;2022-10-20T05:31:14;3.90;99.90
64654;DHT22;51065;48.884;12.598;2022-10-20T05:33:44;3.90;99.90
64654;DHT22;51065;48.884;12.598;2022-10-20T05:36:13;4.00;99.90
64654;DHT22;51065;48.884;12.598;2022-10-20T05:38:39;4.10;99.90
64654;DHT22;51065;48.884;12.598;2022-10-20T05:41:10;4.30;99.90
64654;DHT22;51065;48.884;12.598;2022-10-20T05:43:36;4.30;99.90
64654;DHT22;51065;48.884;12.598;2022-10-20T05:46:02;4.30;99.90
64654;DHT22;51065;48.884;12.598;2022-10-20T05:48:28;4.30;99.90
64654;DHT22;51065;48.884;12.598;2022-10-20T05:50:54;4.30;99.90
64654;DHT22;51065;48.884;12.598;2022-10-20T05:53:20;4.30;99.90
64654;DHT22;51065;48.884;12.598;2022-10-20T05:55:45;4.30;99.90
64654;DHT22;51065;48.884;12.598;2022-10-20T05:58:11;4.20;99.90
64654;DHT22;51065;48.884;12.598;2022-10-20T06:00:36;4.20;99.90
64654;DHT22;51065;48.884;12.598;2022-10-20T06:03:09;4.30;99.90
64654;DHT22;51065;48.884;12.598;2022-10-20T06:05:34;4.40;99.90
64654;DHT22;51065;48.884;12.598;2022-10-20T06:08:00;4.50;99.90
64654;DHT22;51065;48.884;12.598;2022-10-20T06:10:25;4.60;99.90
64654;DHT22;51065;48.884;12.598;2022-10-20T06:12:51;4.60;99.90
64654;DHT22;51065;48.884;12.598;2022-10-20T06:15:17;4.70;99.90
64654;DHT22;51065;48.884;12.598;2022-10-20T06:17:42;4.70;99.90
64654;DHT22;51065;48.884;12.598;2022-10-20T06:20:10;4.90;99.90
64654;DHT22;51065;48.884;12.598;2022-10-20T06:22:36;5.00;99.90
64654;DHT22;51065;48.884;12.598;2022-10-20T06:25:01;5.10;99.90
64654;DHT22;51065;48.884;12.598;2022-10-20T06:27:27;5.20;99.90
64654;DHT22;51065;48.884;12.598;2022-10-20T06:29:53;5.30;99.90
64654;DHT22;51065;48.884;12.598;2022-10-20T06:32:19;5.40;99.90
64654;DHT22;51065;48.884;12.598;2022-10-20T06:34:44;5.50;99.90
64654;DHT22;51065;48.884;12.598;2022-10-20T06:37:10;5.70;99.90
64654;DHT22;51065;48.884;12.598;2022-10-20T06:39:35;5.90;99.90
64654;DHT22;51065;48.884;12.598;2022-10-20T06:42:01;6.00;99.90
64654;DHT22;51065;48.884;12.598;2022-10-20T06:44:30;6.10;99.90
64654;DHT22;51065;48.884;12.598;2022-10-20T06:46:55;6.20;99.90
64654;DHT22;51065;48.884;12.598;2022-10-20T06:49:22;6.20;99.90
64654;DHT22;51065;48.884;12.598;2022-10-20T06:51:48;6.40;99.90
64654;DHT22;51065;48.884;12.598;2022-10-20T06:54:13;6.60;99.90
64654;DHT22;51065;48.884;12.598;2022-10-20T06:56:39;6.80;99.90
64654;DHT22;51065;48.884;12.598;2022-10-20T06:59:05;7.20;99.90
64654;DHT22;51065;48.884;12.598;2022-10-20T07:01:33;7.80;99.90
64654;DHT22;51065;48.884;12.598;2022-10-20T07:04:01;8.20;99.90
64654;DHT22;51065;48.884;12.598;2022-10-20T07:06:29;8.50;99.90
64654;DHT22;51065;48.884;12.598;2022-10-20T07:08:56;8.80;99.90
64654;DHT22;51065;48.884;12.598;2022-10-20T07:11:31;9.10;99.90
64654;DHT22;51065;48.884;12.598;2022-10-20T07:13:58;9.50;99.90
64654;DHT22;51065;48.884;12.598;2022-10-20T07:16:25;10.00;99.90
64654;DHT22;51065;48.884;12.598;2022-10-20T07:18:51;10.40;99.90
64654;DHT22;51065;48.884;12.598;2022-10-20T07:21:19;10.50;99.90
64654;DHT22;51065;48.884;12.598;2022-10-20T07:23:45;10.60;99.90
64654;DHT22;51065;48.884;12.598;2022-10-20T07:26:19;10.60;99.90
64654;DHT22;51065;48.884;12.598;2022-10-20T07:28:50;10.20;99.90
64654;DHT22;51065;48.884;12.598;2022-10-20T07:31:39;10.30;99.90
64654;DHT22;51065;48.884;12.598;2022-10-20T07:34:05;10.60;99.90
64654;DHT22;51065;48.884;12.598;2022-10-20T07:36:32;10.90;98.50
64654;DHT22;51065;48.884;12.598;2022-10-20T07:38:59;11.20;98.50
64654;DHT22;51065;48.884;12.598;2022-10-20T07:41:26;11.70;95.60
64654;DHT22;51065;48.884;12.598;2022-10-20T07:43:53;11.50;93.80
64654;DHT22;51065;48.884;12.598;2022-10-20T07:46:20;11.60;96.30
64654;DHT22;51065;48.884;12.598;2022-10-20T07:48:46;11.90;91.10
64654;DHT22;51065;48.884;12.598;2022-10-20T07:53:52;11.60;87.90
64654;DHT22;51065;48.884;12.598;2022-10-20T07:56:18;11.40;89.60
64654;DHT22;51065;48.884;12.598;2022-10-20T07:58:45;11.70;97.10
64654;DHT22;51065;48.884;12.598;2022-10-20T08:01:11;11.90;91.50
64654;DHT22;51065;48.884;12.598;2022-10-20T08:03:36;12.00;91.10
64654;DHT22;51065;48.884;12.598;2022-10-20T08:06:02;12.30;88.70
64654;DHT22;51065;48.884;12.598;2022-10-20T08:08:28;12.90;88.90
64654;DHT22;51065;48.884;12.598;2022-10-20T08:10:54;13.50;84.60
64654;DHT22;51065;48.884;12.598;2022-10-20T08:13:20;13.90;79.30
64654;DHT22;51065;48.884;12.598;2022-10-20T08:15:46;13.80;78.50
64654;DHT22;51065;48.884;12.598;2022-10-20T08:18:11;13.50;76.70
64654;DHT22;51065;48.884;12.598;2022-10-20T08:20:37;13.30;76.30
64654;DHT22;51065;48.884;12.598;2022-10-20T08:23:03;12.90;80.00
64654;DHT22;51065;48.884;12.598;2022-10-20T08:25:28;13.00;83.50
64654;DHT22;51065;48.884;12.598;2022-10-20T08:27:54;13.10;80.60
64654;DHT22;51065;48.884;12.598;2022-10-20T08:30:19;13.10;81.90
64654;DHT22;51065;48.884;12.598;2022-10-20T08:32:49;13.00;79.30
64654;DHT22;51065;48.884;12.598;2022-10-20T08:35:15;13.60;81.70
64654;DHT22;51065;48.884;12.598;2022-10-20T08:37:41;13.90;76.40
64654;DHT22;51065;48.884;12.598;2022-10-20T08:40:07;14.20;74.20
64654;DHT22;51065;48.884;12.598;2022-10-20T08:42:41;14.00;73.90
64654;DHT22;51065;48.884;12.598;2022-10-20T08:45:21;13.50;73.10
64654;DHT22;51065;48.884;12.598;2022-10-20T08:47:49;13.20;76.30
64654;DHT22;51065;48.884;12.598;2022-10-20T08:50:16;13.70;74.00
64654;DHT22;51065;48.884;12.598;2022-10-20T08:52:44;13.90;72.00
64654;DHT22;51065;48.884;12.598;2022-10-20T08:55:30;13.90;73.90
64654;DHT22;51065;48.884;12.598;2022-10-20T08:58:25;14.30;72.80
64654;DHT22;51065;48.884;12.598;2022-10-20T09:00:56;14.80;68.70
64654;DHT22;51065;48.884;12.598;2022-10-20T09:03:32;15.20;67.40
64654;DHT22;51065;48.884;12.598;2022-10-20T09:06:06;14.70;69.00
64654;DHT22;51065;48.884;12.598;2022-10-20T09:08:35;14.40;71.40
64654;DHT22;51065;48.884;12.598;2022-10-20T09:11:03;14.80;70.50
64654;DHT22;51065;48.884;12.598;2022-10-20T09:13:31;15.10;67.80
64654;DHT22;51065;48.884;12.598;2022-10-20T09:16:09;15.00;67.30
64654;DHT22;51065;48.884;12.598;2022-10-20T09:18:36;15.00;67.30
64654;DHT22;51065;48.884;12.598;2022-10-20T09:21:10;14.50;68.70
64654;DHT22;51065;48.884;12.598;2022-10-20T09:23:44;14.50;70.20
64654;DHT22;51065;48.884;12.598;2022-10-20T09:26:13;14.30;71.00
64654;DHT22;51065;48.884;12.598;2022-10-20T09:28:39;14.70;68.30
64654;DHT22;51065;48.884;12.598;2022-10-20T09:31:20;14.30;69.90
64654;DHT22;51065;48.884;12.598;2022-10-20T09:33:45;14.20;68.80
64654;DHT22;51065;48.884;12.598;2022-10-20T09:36:14;14.30;69.00
64654;DHT22;51065;48.884;12.598;2022-10-20T09:38:48;15.10;67.80
64654;DHT22;51065;48.884;12.598;2022-10-20T09:41:31;15.70;66.20
64654;DHT22;51065;48.884;12.598;2022-10-20T09:44:06;16.00;62.60
64654;DHT22;51065;48.884;12.598;2022-10-20T09:46:44;15.60;64.40
64654;DHT22;51065;48.884;12.598;2022-10-20T09:49:29;16.30;63.50
64654;DHT22;51065;48.884;12.598;2022-10-20T09:51:56;16.20;63.20
64654;DHT22;51065;48.884;12.598;2022-10-20T09:54:24;16.40;62.20
64654;DHT22;51065;48.884;12.598;2022-10-20T09:56:50;16.60;61.20
64654;DHT22;51065;48.884;12.598;2022-10-20T09:59:33;16.10;62.50
64654;DHT22;51065;48.884;12.598;2022-10-20T10:02:03;15.90;63.50
64654;DHT22;51065;48.884;12.598;2022-10-20T10:04:40;15.60;62.20
64654;DHT22;51065;48.884;12.598;2022-10-20T10:10:21;16.70;60.70
64654;DHT22;51065;48.884;12.598;2022-10-20T10:12:51;17.10;59.50
64654;DHT22;51065;48.884;12.598;2022-10-20T10:15:27;17.10;58.50
64654;DHT22;51065;48.884;12.598;2022-10-20T10:17:53;16.30;60.10
64654;DHT22;51065;48.884;12.598;2022-10-20T10:20:38;15.60;63.40
64654;DHT22;51065;48.884;12.598;2022-10-20T10:23:18;15.30;63.60
64654;DHT22;51065;48.884;12.598;2022-10-20T10:25:44;15.40;64.80
64654;DHT22;51065;48.884;12.598;2022-10-20T10:30:47;15.80;61.60
64654;DHT22;51065;48.884;12.598;2022-10-20T10:33:26;15.90;62.50
64654;DHT22;51065;48.884;12.598;2022-10-20T10:35:52;16.00;62.00
64654;DHT22;51065;48.884;12.598;2022-10-20T10:38:18;16.10;63.20
64654;DHT22;51065;48.884;12.598;2022-10-20T10:43:39;16.50;62.70
64654;DHT22;51065;48.884;12.598;2022-10-20T10:46:26;17.50;59.90
64654;DHT22;51065;48.884;12.598;2022-10-20T10:49:13;17.80;57.00
64654;DHT22;51065;48.884;12.598;2022-10-20T10:51:58;17.40;55.20
64654;DHT22;51065;48.884;12.598;2022-10-20T10:57:28;17.90;58.10
64654;DHT22;51065;48.884;12.598;2022-10-20T10:59:58;18.40;55.50
64654;DHT22;51065;48.884;12.598;2022-10-20T11:02:37;18.60;55.00
64654;DHT22;51065;48.884;12.598;2022-10-20T11:05:22;18.80;55.50
64654;DHT22;51065;48.884;12.598;2022-10-20T11:13:21;18.10;54.00
64654;DHT22;51065;48.884;12.598;2022-10-20T11:24:32;17.80;56.70
64654;DHT22;51065;48.884;12.598;2022-10-20T11:27:09;17.50;57.70
64654;DHT22;51065;48.884;12.598;2022-10-20T11:29:50;16.90;58.10
64654;DHT22;51065;48.884;12.598;2022-10-20T11:32:28;16.10;60.80
64654;DHT22;51065;48.884;12.598;2022-10-20T11:37:30;15.80;64.40
64654;DHT22;51065;48.884;12.598;2022-10-20T11:42:59;16.40;60.70
64654;DHT22;51065;48.884;12.598;2022-10-20T11:48:32;18.60;56.30
64654;DHT22;51065;48.884;12.598;2022-10-20T11:51:16;19.80;54.00
64654;DHT22;51065;48.884;12.598;2022-10-20T11:59:38;18.20;54.60
64654;DHT22;51065;48.884;12.598;2022-10-20T12:13:27;19.20;53.60
64654;DHT22;51065;48.884;12.598;2022-10-20T12:15:54;19.40;53.30
64654;DHT22;51065;48.884;12.598;2022-10-20T12:18:30;19.50;52.80
64654;DHT22;51065;48.884;12.598;2022-10-20T12:28:58;19.40;52.30
64654;DHT22;51065;48.884;12.598;2022-10-20T12:31:24;18.70;54.50
64654;DHT22;51065;48.884;12.598;2022-10-20T12:34:22;18.40;55.50
64654;DHT22;51065;48.884;12.598;2022-10-20T12:36:48;17.90;56.20
64654;DHT22;51065;48.884;12.598;2022-10-20T12:39:16;17.90;57.50
64654;DHT22;51065;48.884;12.598;2022-10-20T12:41:55;18.20;57.30
64654;DHT22;51065;48.884;12.598;2022-10-20T12:44:22;18.70;55.40
64654;DHT22;51065;48.884;12.598;2022-10-20T12:47:03;18.80;54.60
64654;DHT22;51065;48.884;12.598;2022-10-20T12:49:38;18.40;57.70
64654;DHT22;51065;48.884;12.598;2022-10-20T12:52:06;17.90;56.10
64654;DHT22;51065;48.884;12.598;2022-10-20T12:54:41;17.60;57.50
64654;DHT22;51065;48.884;12.598;2022-10-20T12:57:38;17.30;58.80
64654;DHT22;51065;48.884;12.598;2022-10-20T13:02:54;16.70;61.50
64654;DHT22;51065;48.884;12.598;2022-10-20T13:10:44;16.70;62.40
64654;DHT22;51065;48.884;12.598;2022-10-20T13:15:36;17.60;59.40
64654;DHT22;51065;48.884;12.598;2022-10-20T13:23:13;18.60;56.00
64654;DHT22;51065;48.884;12.598;2022-10-20T13:25:45;18.10;56.90
64654;DHT22;51065;48.884;12.598;2022-10-20T13:33:27;18.30;56.90
64654;DHT22;51065;48.884;12.598;2022-10-20T13:36:11;18.30;57.80
64654;DHT22;51065;48.884;12.598;2022-10-20T13:38:50;18.30;58.40
64654;DHT22;51065;48.884;12.598;2022-10-20T13:41:34;18.20;58.10
64654;DHT22;51065;48.884;12.598;2022-10-20T13:44:06;18.30;57.10
64654;DHT22;51065;48.884;12.598;2022-10-20T13:46:44;18.10;57.00
64654;DHT22;51065;48.884;12.598;2022-10-20T13:52:01;18.10;58.20
64654;DHT22;51065;48.884;12.598;2022-10-20T13:54:31;17.70;57.70
64654;DHT22;51065;48.884;12.598;2022-10-20T13:56:57;17.20;59.10
64654;DHT22;51065;48.884;12.598;2022-10-20T13:59:27;16.90;60.50
64654;DHT22;51065;48.884;12.598;2022-10-20T14:02:01;16.70;61.10
64654;DHT22;51065;48.884;12.598;2022-10-20T14:04:33;16.40;62.20
64654;DHT22;51065;48.884;12.598;2022-10-20T14:07:12;16.30;63.10
64654;DHT22;51065;48.884;12.598;2022-10-20T14:09:40;16.20;63.10
64654;DHT22;51065;48.884;12.598;2022-10-20T14:12:19;16.10;63.00
64654;DHT22;51065;48.884;12.598;2022-10-20T14:14:47;16.10;63.50
64654;DHT22;51065;48.884;12.598;2022-10-20T14:17:21;16.10;65.10
64654;DHT22;51065;48.884;12.598;2022-10-20T14:19:47;16.10;65.20
64654;DHT22;51065;48.884;12.598;2022-10-20T14:22:20;16.10;64.40
64654;DHT22;51065;48.884;12.598;2022-10-20T14:24:52;16.10;64.80
64654;DHT22;51065;48.884;12.598;2022-10-20T14:27:27;16.10;65.30
64654;DHT22;51065;48.884;12.598;2022-10-20T14:29:54;16.00;64.70
64654;DHT22;51065;48.884;12.598;2022-10-20T14:32:23;16.00;65.30
64654;DHT22;51065;48.884;12.598;2022-10-20T14:35:01;16.00;64.40
64654;DHT22;51065;48.884;12.598;2022-10-20T14:37:28;15.90;64.30
64654;DHT22;51065;48.884;12.598;2022-10-20T14:39:57;16.00;64.90
64654;DHT22;51065;48.884;12.598;2022-10-20T14:42:26;15.90;65.50
64654;DHT22;51065;48.884;12.598;2022-10-20T14:44:53;15.90;65.10
64654;DHT22;51065;48.884;12.598;2022-10-20T14:47:22;15.80;66.60
64654;DHT22;51065;48.884;12.598;2022-10-20T14:49:50;15.60;65.40
64654;DHT22;51065;48.884;12.598;2022-10-20T14:54:43;15.50;66.50
64654;DHT22;51065;48.884;12.598;2022-10-20T15:00:01;15.40;67.20
64654;DHT22;51065;48.884;12.598;2022-10-20T15:02:42;15.30;67.40
64654;DHT22;51065;48.884;12.598;2022-10-20T15:05:42;15.30;70.20
64654;DHT22;51065;48.884;12.598;2022-10-20T15:08:13;15.00;72.60
64654;DHT22;51065;48.884;12.598;2022-10-20T15:10:40;14.80;76.00
64654;DHT22;51065;48.884;12.598;2022-10-20T15:13:26;14.50;78.40
64654;DHT22;51065;48.884;12.598;2022-10-20T15:15:52;14.30;81.20
64654;DHT22;51065;48.884;12.598;2022-10-20T15:18:19;14.20;84.90
64654;DHT22;51065;48.884;12.598;2022-10-20T15:20:49;14.00;86.50
64654;DHT22;51065;48.884;12.598;2022-10-20T15:23:25;13.90;87.30
64654;DHT22;51065;48.884;12.598;2022-10-20T15:26:09;13.80;90.80
64654;DHT22;51065;48.884;12.598;2022-10-20T15:28:39;13.70;92.10
64654;DHT22;51065;48.884;12.598;2022-10-20T15:33:32;13.50;93.40
64654;DHT22;51065;48.884;12.598;2022-10-20T15:35:58;13.50;95.10
64654;DHT22;51065;48.884;12.598;2022-10-20T15:38:26;13.30;97.50
64654;DHT22;51065;48.884;12.598;2022-10-20T15:40:51;13.20;99.20
64654;DHT22;51065;48.884;12.598;2022-10-20T15:43:17;13.10;99.80
64654;DHT22;51065;48.884;12.598;2022-10-20T15:45:46;12.90;99.90
64654;DHT22;51065;48.884;12.598;2022-10-20T15:48:14;12.80;99.90
64654;DHT22;51065;48.884;12.598;2022-10-20T15:50:39;12.70;99.90
64654;DHT22;51065;48.884;12.598;2022-10-20T15:56:16;12.40;99.90
64654;DHT22;51065;48.884;12.598;2022-10-20T15:58:42;12.20;99.90
64654;DHT22;51065;48.884;12.598;2022-10-20T16:01:12;12.10;99.90
64654;DHT22;51065;48.884;12.598;2022-10-20T16:03:38;12.00;99.90
64654;DHT22;51065;48.884;12.598;2022-10-20T16:06:06;12.10;99.90
64654;DHT22;51065;48.884;12.598;2022-10-20T16:08:31;12.10;99.90
64654;DHT22;51065;48.884;12.598;2022-10-20T16:10:57;12.10;99.90
64654;DHT22;51065;48.884;12.598;2022-10-20T16:13:22;12.10;99.90
64654;DHT22;51065;48.884;12.598;2022-10-20T16:15:48;12.00;99.90
64654;DHT22;51065;48.884;12.598;2022-10-20T16:18:14;11.90;99.90
64654;DHT22;51065;48.884;12.598;2022-10-20T16:20:39;11.80;99.90
64654;DHT22;51065;48.884;12.598;2022-10-20T16:23:05;11.80;99.90
64654;DHT22;51065;48.884;12.598;2022-10-20T16:25:31;11.80;99.90
64654;DHT22;51065;48.884;12.598;2022-10-20T16:27:56;11.70;99.90
64654;DHT22;51065;48.884;12.598;2022-10-20T16:30:22;11.50;99.90
64654;DHT22;51065;48.884;12.598;2022-10-20T16:32:47;11.40;99.90
64654;DHT22;51065;48.884;12.598;2022-10-20T16:35:13;11.20;99.90
64654;DHT22;51065;48.884;12.598;2022-10-20T16:37:39;11.10;99.90
64654;DHT22;51065;48.884;12.598;2022-10-20T16:40:04;11.00;99.90
64654;DHT22;51065;48.884;12.598;2022-10-20T16:42:30;10.90;99.90
64654;DHT22;51065;48.884;12.598;2022-10-20T16:44:57;11.00;99.90
64654;DHT22;51065;48.884;12.598;2022-10-20T16:47:24;10.90;99.90
64654;DHT22;51065;48.884;12.598;2022-10-20T16:49:50;10.90;99.90
64654;DHT22;51065;48.884;12.598;2022-10-20T16:52:16;11.00;99.90
64654;DHT22;51065;48.884;12.598;2022-10-20T16:54:41;11.00;99.90
64654;DHT22;51065;48.884;12.598;2022-10-20T16:57:07;11.00;99.90
64654;DHT22;51065;48.884;12.598;2022-10-20T16:59:36;11.00;99.90
64654;DHT22;51065;48.884;12.598;2022-10-20T17:02:02;11.10;99.90
64654;DHT22;51065;48.884;12.598;2022-10-20T17:04:27;11.10;99.90
64654;DHT22;51065;48.884;12.598;2022-10-20T17:06:53;11.00;99.90
64654;DHT22;51065;48.884;12.598;2022-10-20T17:09:18;11.00;99.90
64654;DHT22;51065;48.884;12.598;2022-10-20T17:11:44;11.00;99.90
64654;DHT22;51065;48.884;12.598;2022-10-20T17:14:10;10.90;99.90
64654;DHT22;51065;48.884;12.598;2022-10-20T17:16:35;10.90;99.90
64654;DHT22;51065;48.884;12.598;2022-10-20T17:19:03;10.90;99.90
64654;DHT22;51065;48.884;12.598;2022-10-20T17:21:30;10.90;99.90
64654;DHT22;51065;48.884;12.598;2022-10-20T17:23:56;10.90;99.90
64654;DHT22;51065;48.884;12.598;2022-10-20T17:26:25;10.80;99.90
64654;DHT22;51065;48.884;12.598;2022-10-20T17:28:53;10.80;99.90
64654;DHT22;51065;48.884;12.598;2022-10-20T17:31:19;10.80;99.90